sensor_id;sensor_type;location;lat;lon;timestamp;P1;durP1;ratioP1;P2;durP2;ratioP2
15490;SDS011;7847;50.930;4.336;2022-07-17T00:00:41;0.20;;;0.20;;
15490;SDS011;7847;50.930;4.336;2022-07-17T00:03:08;0.20;;;0.20;;
15490;SDS011;7847;50.930;4.336;2022-07-17T00:05:34;0.20;;;0.20;;
15490;SDS011;7847;50.930;4.336;2022-07-17T00:08:01;0.20;;;0.20;;
15490;SDS011;7847;50.930;4.336;2022-07-17T00:10:27;0.20;;;0.20;;
15490;SDS011;7847;50.930;4.336;2022-07-17T00:12:53;0.20;;;0.20;;
15490;SDS011;7847;50.930;4.336;2022-07-17T00:15:19;0.20;;;0.20;;
15490;SDS011;7847;50.930;4.336;2022-07-17T00:17:45;0.20;;;0.20;;
15490;SDS011;7847;50.930;4.336;2022-07-17T00:20:11;0.20;;;0.20;;
15490;SDS011;7847;50.930;4.336;2022-07-17T00:22:37;0.20;;;0.20;;
15490;SDS011;7847;50.930;4.336;2022-07-17T00:25:03;0.20;;;0.20;;
15490;SDS011;7847;50.930;4.336;2022-07-17T00:27:30;0.20;;;0.20;;
15490;SDS011;7847;50.930;4.336;2022-07-17T00:29:56;0.20;;;0.20;;
15490;SDS011;7847;50.930;4.336;2022-07-17T00:32:22;0.30;;;0.30;;
15490;SDS011;7847;50.930;4.336;2022-07-17T00:34:51;0.20;;;0.20;;
15490;SDS011;7847;50.930;4.336;2022-07-17T00:37:17;0.20;;;0.20;;
15490;SDS011;7847;50.930;4.336;2022-07-17T00:39:43;0.20;;;0.20;;
15490;SDS011;7847;50.930;4.336;2022-07-17T00:42:12;0.20;;;0.20;;
15490;SDS011;7847;50.930;4.336;2022-07-17T00:44:39;0.20;;;0.20;;
15490;SDS011;7847;50.930;4.336;2022-07-17T00:47:15;0.20;;;0.20;;
15490;SDS011;7847;50.930;4.336;2022-07-17T00:49:43;0.20;;;0.20;;
15490;SDS011;7847;50.930;4.336;2022-07-17T00:52:09;0.20;;;0.20;;
15490;SDS011;7847;50.930;4.336;2022-07-17T00:54:36;0.20;;;0.20;;
15490;SDS011;7847;50.930;4.336;2022-07-17T00:57:07;0.20;;;0.20;;
15490;SDS011;7847;50.930;4.336;2022-07-17T00:59:33;0.20;;;0.20;;
15490;SDS011;7847;50.930;4.336;2022-07-17T01:02:02;0.20;;;0.20;;
15490;SDS011;7847;50.930;4.336;2022-07-17T01:04:28;0.20;;;0.20;;
15490;SDS011;7847;50.930;4.336;2022-07-17T01:06:54;0.20;;;0.20;;
15490;SDS011;7847;50.930;4.336;2022-07-17T01:09:20;0.20;;;0.20;;
15490;SDS011;7847;50.930;4.336;2022-07-17T01:11:46;0.20;;;0.20;;
15490;SDS011;7847;50.930;4.336;2022-07-17T01:14:12;0.20;;;0.20;;
15490;SDS011;7847;50.930;4.336;2022-07-17T01:16:39;0.20;;;0.20;;
15490;SDS011;7847;50.930;4.336;2022-07-17T01:19:05;0.20;;;0.20;;
15490;SDS011;7847;50.930;4.336;2022-07-17T01:21:39;0.20;;;0.20;;
15490;SDS011;7847;50.930;4.336;2022-07-17T01:24:06;0.20;;;0.20;;
15490;SDS011;7847;50.930;4.336;2022-07-17T01:26:32;0.20;;;0.20;;
15490;SDS011;7847;50.930;4.336;2022-07-17T01:28:58;0.20;;;0.20;;
15490;SDS011;7847;50.930;4.336;2022-07-17T01:31:24;0.20;;;0.20;;
15490;SDS011;7847;50.930;4.336;2022-07-17T01:33:50;0.30;;;0.30;;
15490;SDS011;7847;50.930;4.336;2022-07-17T01:36:21;0.20;;;0.20;;
15490;SDS011;7847;50.930;4.336;2022-07-17T01:38:47;0.20;;;0.20;;
15490;SDS011;7847;50.930;4.336;2022-07-17T01:41:14;0.20;;;0.20;;
15490;SDS011;7847;50.930;4.336;2022-07-17T01:43:40;0.20;;;0.20;;
15490;SDS011;7847;50.930;4.336;2022-07-17T01:46:06;0.20;;;0.20;;
15490;SDS011;7847;50.930;4.336;2022-07-17T01:48:32;0.20;;;0.20;;
15490;SDS011;7847;50.930;4.336;2022-07-17T01:50:58;0.20;;;0.20;;
15490;SDS011;7847;50.930;4.336;2022-07-17T01:53:24;0.20;;;0.20;;
15490;SDS011;7847;50.930;4.336;2022-07-17T01:55:50;0.20;;;0.20;;
15490;SDS011;7847;50.930;4.336;2022-07-17T01:58:17;0.20;;;0.20;;
15490;SDS011;7847;50.930;4.336;2022-07-17T02:00:43;0.30;;;0.30;;
15490;SDS011;7847;50.930;4.336;2022-07-17T02:03:09;0.20;;;0.20;;
15490;SDS011;7847;50.930;4.336;2022-07-17T02:05:35;0.20;;;0.20;;
15490;SDS011;7847;50.930;4.336;2022-07-17T02:08:02;0.20;;;0.20;;
15490;SDS011;7847;50.930;4.336;2022-07-17T02:10:28;0.20;;;0.20;;
15490;SDS011;7847;50.930;4.336;2022-07-17T02:12:54;0.20;;;0.20;;
15490;SDS011;7847;50.930;4.336;2022-07-17T02:15:22;0.20;;;0.20;;
15490;SDS011;7847;50.930;4.336;2022-07-17T02:17:48;0.20;;;0.20;;
15490;SDS011;7847;50.930;4.336;2022-07-17T02:20:14;0.20;;;0.20;;
15490;SDS011;7847;50.930;4.336;2022-07-17T02:22:40;0.20;;;0.20;;
15490;SDS011;7847;50.930;4.336;2022-07-17T02:25:07;0.20;;;0.20;;
15490;SDS011;7847;50.930;4.336;2022-07-17T02:27:34;0.20;;;0.20;;
15490;SDS011;7847;50.930;4.336;2022-07-17T02:30:04;0.20;;;0.20;;
15490;SDS011;7847;50.930;4.336;2022-07-17T02:32:30;0.20;;;0.20;;
15490;SDS011;7847;50.930;4.336;2022-07-17T02:34:57;0.20;;;0.20;;
15490;SDS011;7847;50.930;4.336;2022-07-17T02:37:23;0.20;;;0.20;;
15490;SDS011;7847;50.930;4.336;2022-07-17T02:39:49;0.20;;;0.20;;
15490;SDS011;7847;50.930;4.336;2022-07-17T02:42:24;0.20;;;0.20;;
15490;SDS011;7847;50.930;4.336;2022-07-17T02:44:51;0.20;;;0.20;;
15490;SDS011;7847;50.930;4.336;2022-07-17T02:47:20;0.20;;;0.20;;
15490;SDS011;7847;50.930;4.336;2022-07-17T02:49:47;0.20;;;0.20;;
15490;SDS011;7847;50.930;4.336;2022-07-17T02:52:13;0.20;;;0.20;;
15490;SDS011;7847;50.930;4.336;2022-07-17T02:54:39;0.20;;;0.20;;
15490;SDS011;7847;50.930;4.336;2022-07-17T02:57:06;0.20;;;0.20;;
15490;SDS011;7847;50.930;4.336;2022-07-17T02:59:32;0.20;;;0.20;;
15490;SDS011;7847;50.930;4.336;2022-07-17T03:01:58;0.27;;;0.27;;
15490;SDS011;7847;50.930;4.336;2022-07-17T03:04:24;0.20;;;0.20;;
15490;SDS011;7847;50.930;4.336;2022-07-17T03:06:50;0.30;;;0.30;;
15490;SDS011;7847;50.930;4.336;2022-07-17T03:09:16;0.20;;;0.20;;
15490;SDS011;7847;50.930;4.336;2022-07-17T03:11:42;0.20;;;0.20;;
15490;SDS011;7847;50.930;4.336;2022-07-17T03:14:09;0.20;;;0.20;;
15490;SDS011;7847;50.930;4.336;2022-07-17T03:16:35;0.20;;;0.20;;
15490;SDS011;7847;50.930;4.336;2022-07-17T03:19:01;0.20;;;0.20;;
15490;SDS011;7847;50.930;4.336;2022-07-17T03:21:27;0.20;;;0.20;;
15490;SDS011;7847;50.930;4.336;2022-07-17T03:23:53;0.20;;;0.20;;
15490;SDS011;7847;50.930;4.336;2022-07-17T03:26:19;0.20;;;0.20;;
15490;SDS011;7847;50.930;4.336;2022-07-17T03:28:45;0.20;;;0.20;;
15490;SDS011;7847;50.930;4.336;2022-07-17T03:31:12;0.20;;;0.20;;
15490;SDS011;7847;50.930;4.336;2022-07-17T03:33:38;0.20;;;0.20;;
15490;SDS011;7847;50.930;4.336;2022-07-17T03:36:04;0.20;;;0.20;;
15490;SDS011;7847;50.930;4.336;2022-07-17T03:38:31;0.20;;;0.20;;
15490;SDS011;7847;50.930;4.336;2022-07-17T03:40:57;0.20;;;0.20;;
15490;SDS011;7847;50.930;4.336;2022-07-17T03:43:23;0.20;;;0.20;;
15490;SDS011;7847;50.930;4.336;2022-07-17T03:45:49;0.20;;;0.20;;
15490;SDS011;7847;50.930;4.336;2022-07-17T03:48:16;0.20;;;0.20;;
15490;SDS011;7847;50.930;4.336;2022-07-17T03:50:42;0.20;;;0.20;;
15490;SDS011;7847;50.930;4.336;2022-07-17T03:53:08;0.30;;;0.30;;
15490;SDS011;7847;50.930;4.336;2022-07-17T03:55:34;0.20;;;0.20;;
15490;SDS011;7847;50.930;4.336;2022-07-17T03:58:00;0.20;;;0.20;;
15490;SDS011;7847;50.930;4.336;2022-07-17T04:00:26;0.20;;;0.20;;
15490;SDS011;7847;50.930;4.336;2022-07-17T04:02:53;0.20;;;0.20;;
15490;SDS011;7847;50.930;4.336;2022-07-17T04:05:19;0.20;;;0.20;;
15490;SDS011;7847;50.930;4.336;2022-07-17T04:07:45;0.20;;;0.20;;
15490;SDS011;7847;50.930;4.336;2022-07-17T04:10:12;0.20;;;0.20;;
15490;SDS011;7847;50.930;4.336;2022-07-17T04:12:39;0.30;;;0.30;;
15490;SDS011;7847;50.930;4.336;2022-07-17T04:15:05;0.20;;;0.20;;
15490;SDS011;7847;50.930;4.336;2022-07-17T04:17:31;0.20;;;0.20;;
15490;SDS011;7847;50.930;4.336;2022-07-17T04:19:58;0.30;;;0.30;;
15490;SDS011;7847;50.930;4.336;2022-07-17T04:22:24;0.30;;;0.30;;
15490;SDS011;7847;50.930;4.336;2022-07-17T04:24:50;0.20;;;0.20;;
15490;SDS011;7847;50.930;4.336;2022-07-17T04:27:16;0.20;;;0.20;;
15490;SDS011;7847;50.930;4.336;2022-07-17T04:29:42;0.20;;;0.20;;
15490;SDS011;7847;50.930;4.336;2022-07-17T04:32:09;0.20;;;0.20;;
15490;SDS011;7847;50.930;4.336;2022-07-17T04:34:35;0.20;;;0.20;;
15490;SDS011;7847;50.930;4.336;2022-07-17T04:37:02;0.20;;;0.20;;
15490;SDS011;7847;50.930;4.336;2022-07-17T04:39:28;0.30;;;0.30;;
15490;SDS011;7847;50.930;4.336;2022-07-17T04:41:54;0.20;;;0.20;;
15490;SDS011;7847;50.930;4.336;2022-07-17T04:44:20;0.20;;;0.20;;
15490;SDS011;7847;50.930;4.336;2022-07-17T04:46:46;0.20;;;0.20;;
15490;SDS011;7847;50.930;4.336;2022-07-17T04:49:13;0.20;;;0.20;;
15490;SDS011;7847;50.930;4.336;2022-07-17T04:51:39;0.20;;;0.20;;
15490;SDS011;7847;50.930;4.336;2022-07-17T04:54:05;0.20;;;0.20;;
15490;SDS011;7847;50.930;4.336;2022-07-17T04:56:31;0.27;;;0.27;;
15490;SDS011;7847;50.930;4.336;2022-07-17T04:58:57;0.20;;;0.20;;
15490;SDS011;7847;50.930;4.336;2022-07-17T05:01:23;0.20;;;0.20;;
15490;SDS011;7847;50.930;4.336;2022-07-17T05:03:49;0.20;;;0.20;;
15490;SDS011;7847;50.930;4.336;2022-07-17T05:06:15;0.20;;;0.20;;
15490;SDS011;7847;50.930;4.336;2022-07-17T05:08:42;0.20;;;0.20;;
15490;SDS011;7847;50.930;4.336;2022-07-17T05:11:08;0.20;;;0.20;;
15490;SDS011;7847;50.930;4.336;2022-07-17T05:13:34;0.20;;;0.20;;
15490;SDS011;7847;50.930;4.336;2022-07-17T05:16:00;0.20;;;0.20;;
15490;SDS011;7847;50.930;4.336;2022-07-17T05:18:26;0.20;;;0.20;;
15490;SDS011;7847;50.930;4.336;2022-07-17T05:20:52;0.20;;;0.20;;
15490;SDS011;7847;50.930;4.336;2022-07-17T05:23:18;0.20;;;0.20;;
15490;SDS011;7847;50.930;4.336;2022-07-17T05:25:44;0.20;;;0.20;;
15490;SDS011;7847;50.930;4.336;2022-07-17T05:28:10;0.20;;;0.20;;
15490;SDS011;7847;50.930;4.336;2022-07-17T05:30:37;0.20;;;0.20;;
15490;SDS011;7847;50.930;4.336;2022-07-17T05:33:03;0.20;;;0.20;;
15490;SDS011;7847;50.930;4.336;2022-07-17T05:35:29;0.20;;;0.20;;
15490;SDS011;7847;50.930;4.336;2022-07-17T05:37:56;0.20;;;0.20;;
15490;SDS011;7847;50.930;4.336;2022-07-17T05:40:22;0.20;;;0.20;;
15490;SDS011;7847;50.930;4.336;2022-07-17T05:42:50;0.20;;;0.20;;
15490;SDS011;7847;50.930;4.336;2022-07-17T05:45:17;0.20;;;0.20;;
15490;SDS011;7847;50.930;4.336;2022-07-17T05:47:43;0.20;;;0.20;;
15490;SDS011;7847;50.930;4.336;2022-07-17T05:50:09;0.20;;;0.20;;
15490;SDS011;7847;50.930;4.336;2022-07-17T05:52:35;0.20;;;0.20;;
15490;SDS011;7847;50.930;4.336;2022-07-17T05:55:01;0.20;;;0.20;;
15490;SDS011;7847;50.930;4.336;2022-07-17T05:57:27;0.20;;;0.20;;
15490;SDS011;7847;50.930;4.336;2022-07-17T05:59:53;0.20;;;0.20;;
15490;SDS011;7847;50.930;4.336;2022-07-17T06:02:19;0.20;;;0.20;;
15490;SDS011;7847;50.930;4.336;2022-07-17T06:04:45;0.20;;;0.20;;
15490;SDS011;7847;50.930;4.336;2022-07-17T06:07:11;0.20;;;0.20;;
15490;SDS011;7847;50.930;4.336;2022-07-17T06:09:37;0.20;;;0.20;;
15490;SDS011;7847;50.930;4.336;2022-07-17T06:12:03;0.20;;;0.20;;
15490;SDS011;7847;50.930;4.336;2022-07-17T06:14:29;0.13;;;0.13;;
15490;SDS011;7847;50.930;4.336;2022-07-17T06:16:55;0.10;;;0.10;;
15490;SDS011;7847;50.930;4.336;2022-07-17T06:19:22;0.20;;;0.20;;
15490;SDS011;7847;50.930;4.336;2022-07-17T06:21:48;0.10;;;0.10;;
15490;SDS011;7847;50.930;4.336;2022-07-17T06:24:14;0.10;;;0.10;;
15490;SDS011;7847;50.930;4.336;2022-07-17T06:26:40;0.20;;;0.20;;
15490;SDS011;7847;50.930;4.336;2022-07-17T06:29:06;0.10;;;0.10;;
15490;SDS011;7847;50.930;4.336;2022-07-17T06:31:32;0.10;;;0.10;;
15490;SDS011;7847;50.930;4.336;2022-07-17T06:33:58;0.10;;;0.10;;
15490;SDS011;7847;50.930;4.336;2022-07-17T06:36:24;0.15;;;0.15;;
15490;SDS011;7847;50.930;4.336;2022-07-17T06:38:50;0.20;;;0.20;;
15490;SDS011;7847;50.930;4.336;2022-07-17T06:41:16;0.20;;;0.20;;
15490;SDS011;7847;50.930;4.336;2022-07-17T06:43:42;0.20;;;0.20;;
15490;SDS011;7847;50.930;4.336;2022-07-17T06:46:08;0.20;;;0.20;;
15490;SDS011;7847;50.930;4.336;2022-07-17T06:48:35;0.10;;;0.10;;
15490;SDS011;7847;50.930;4.336;2022-07-17T06:51:01;0.10;;;0.10;;
15490;SDS011;7847;50.930;4.336;2022-07-17T06:53:27;0.20;;;0.20;;
15490;SDS011;7847;50.930;4.336;2022-07-17T06:55:53;0.10;;;0.10;;
15490;SDS011;7847;50.930;4.336;2022-07-17T06:58:19;0.20;;;0.20;;
15490;SDS011;7847;50.930;4.336;2022-07-17T07:00:45;0.10;;;0.10;;
15490;SDS011;7847;50.930;4.336;2022-07-17T07:03:11;0.20;;;0.20;;
15490;SDS011;7847;50.930;4.336;2022-07-17T07:05:37;0.10;;;0.10;;
15490;SDS011;7847;50.930;4.336;2022-07-17T07:08:04;0.20;;;0.20;;
15490;SDS011;7847;50.930;4.336;2022-07-17T07:10:30;0.10;;;0.10;;
15490;SDS011;7847;50.930;4.336;2022-07-17T07:12:56;0.20;;;0.20;;
15490;SDS011;7847;50.930;4.336;2022-07-17T07:15:22;0.20;;;0.20;;
15490;SDS011;7847;50.930;4.336;2022-07-17T07:17:49;0.10;;;0.10;;
15490;SDS011;7847;50.930;4.336;2022-07-17T07:20:15;0.10;;;0.10;;
15490;SDS011;7847;50.930;4.336;2022-07-17T07:22:41;0.10;;;0.10;;
15490;SDS011;7847;50.930;4.336;2022-07-17T07:25:07;0.10;;;0.10;;
15490;SDS011;7847;50.930;4.336;2022-07-17T07:27:34;0.10;;;0.10;;
15490;SDS011;7847;50.930;4.336;2022-07-17T07:30:00;0.10;;;0.10;;
15490;SDS011;7847;50.930;4.336;2022-07-17T07:32:26;0.10;;;0.10;;
15490;SDS011;7847;50.930;4.336;2022-07-17T07:34:52;0.20;;;0.20;;
15490;SDS011;7847;50.930;4.336;2022-07-17T07:37:19;0.10;;;0.10;;
15490;SDS011;7847;50.930;4.336;2022-07-17T07:39:46;0.10;;;0.10;;
15490;SDS011;7847;50.930;4.336;2022-07-17T07:42:12;0.10;;;0.10;;
15490;SDS011;7847;50.930;4.336;2022-07-17T07:44:38;0.10;;;0.10;;
15490;SDS011;7847;50.930;4.336;2022-07-17T07:47:04;0.10;;;0.10;;
15490;SDS011;7847;50.930;4.336;2022-07-17T07:49:30;0.10;;;0.10;;
15490;SDS011;7847;50.930;4.336;2022-07-17T07:51:56;0.10;;;0.10;;
15490;SDS011;7847;50.930;4.336;2022-07-17T07:54:22;0.00;;;0.00;;
15490;SDS011;7847;50.930;4.336;2022-07-17T07:56:48;0.10;;;0.10;;
15490;SDS011;7847;50.930;4.336;2022-07-17T07:59:14;0.10;;;0.10;;
15490;SDS011;7847;50.930;4.336;2022-07-17T08:01:40;0.10;;;0.10;;
15490;SDS011;7847;50.930;4.336;2022-07-17T08:04:06;0.10;;;0.10;;
15490;SDS011;7847;50.930;4.336;2022-07-17T08:06:32;0.10;;;0.10;;
15490;SDS011;7847;50.930;4.336;2022-07-17T08:08:59;0.10;;;0.10;;
15490;SDS011;7847;50.930;4.336;2022-07-17T08:11:25;0.10;;;0.10;;
15490;SDS011;7847;50.930;4.336;2022-07-17T08:13:51;0.20;;;0.20;;
15490;SDS011;7847;50.930;4.336;2022-07-17T08:16:17;0.10;;;0.10;;
15490;SDS011;7847;50.930;4.336;2022-07-17T08:18:43;0.10;;;0.10;;
15490;SDS011;7847;50.930;4.336;2022-07-17T08:21:09;0.10;;;0.10;;
15490;SDS011;7847;50.930;4.336;2022-07-17T08:23:35;0.00;;;0.00;;
15490;SDS011;7847;50.930;4.336;2022-07-17T08:26:01;0.00;;;0.00;;
15490;SDS011;7847;50.930;4.336;2022-07-17T08:28:28;0.10;;;0.10;;
15490;SDS011;7847;50.930;4.336;2022-07-17T08:30:54;0.00;;;0.00;;
15490;SDS011;7847;50.930;4.336;2022-07-17T08:33:20;0.10;;;0.10;;
15490;SDS011;7847;50.930;4.336;2022-07-17T08:35:46;0.10;;;0.10;;
15490;SDS011;7847;50.930;4.336;2022-07-17T08:38:12;0.10;;;0.10;;
15490;SDS011;7847;50.930;4.336;2022-07-17T08:40:38;0.10;;;0.10;;
15490;SDS011;7847;50.930;4.336;2022-07-17T08:43:06;0.10;;;0.10;;
15490;SDS011;7847;50.930;4.336;2022-07-17T08:45:33;0.00;;;0.00;;
15490;SDS011;7847;50.930;4.336;2022-07-17T08:47:59;0.08;;;0.08;;
15490;SDS011;7847;50.930;4.336;2022-07-17T08:50:28;0.10;;;0.10;;
15490;SDS011;7847;50.930;4.336;2022-07-17T08:52:55;0.10;;;0.10;;
15490;SDS011;7847;50.930;4.336;2022-07-17T08:55:21;0.00;;;0.00;;
15490;SDS011;7847;50.930;4.336;2022-07-17T08:57:48;0.10;;;0.10;;
15490;SDS011;7847;50.930;4.336;2022-07-17T09:00:15;0.10;;;0.10;;
15490;SDS011;7847;50.930;4.336;2022-07-17T09:03:03;0.10;;;0.10;;
15490;SDS011;7847;50.930;4.336;2022-07-17T09:05:31;0.00;;;0.00;;
15490;SDS011;7847;50.930;4.336;2022-07-17T09:07:58;0.00;;;0.00;;
15490;SDS011;7847;50.930;4.336;2022-07-17T09:10:40;0.10;;;0.10;;
15490;SDS011;7847;50.930;4.336;2022-07-17T09:13:42;0.00;;;0.00;;
15490;SDS011;7847;50.930;4.336;2022-07-17T09:16:08;0.10;;;0.10;;
15490;SDS011;7847;50.930;4.336;2022-07-17T09:18:45;0.00;;;0.00;;
15490;SDS011;7847;50.930;4.336;2022-07-17T09:21:18;0.10;;;0.10;;
15490;SDS011;7847;50.930;4.336;2022-07-17T09:23:44;0.10;;;0.10;;
15490;SDS011;7847;50.930;4.336;2022-07-17T09:26:11;0.00;;;0.00;;
15490;SDS011;7847;50.930;4.336;2022-07-17T09:28:46;0.00;;;0.00;;
15490;SDS011;7847;50.930;4.336;2022-07-17T09:31:12;0.10;;;0.10;;
15490;SDS011;7847;50.930;4.336;2022-07-17T09:33:49;0.00;;;0.00;;
15490;SDS011;7847;50.930;4.336;2022-07-17T09:36:15;0.00;;;0.00;;
15490;SDS011;7847;50.930;4.336;2022-07-17T09:38:41;0.00;;;0.00;;
15490;SDS011;7847;50.930;4.336;2022-07-17T09:41:12;0.00;;;0.00;;
15490;SDS011;7847;50.930;4.336;2022-07-17T09:46:20;0.00;;;0.00;;
15490;SDS011;7847;50.930;4.336;2022-07-17T09:48:48;0.00;;;0.00;;
15490;SDS011;7847;50.930;4.336;2022-07-17T09:51:19;0.10;;;0.10;;
15490;SDS011;7847;50.930;4.336;2022-07-17T09:53:46;0.00;;;0.00;;
15490;SDS011;7847;50.930;4.336;2022-07-17T09:56:14;0.00;;;0.00;;
15490;SDS011;7847;50.930;4.336;2022-07-17T09:58:40;0.10;;;0.10;;
15490;SDS011;7847;50.930;4.336;2022-07-17T10:01:08;0.00;;;0.00;;
15490;SDS011;7847;50.930;4.336;2022-07-17T10:03:35;0.00;;;0.00;;
15490;SDS011;7847;50.930;4.336;2022-07-17T10:06:01;0.10;;;0.10;;
15490;SDS011;7847;50.930;4.336;2022-07-17T10:08:27;0.10;;;0.10;;
15490;SDS011;7847;50.930;4.336;2022-07-17T10:10:54;0.00;;;0.00;;
15490;SDS011;7847;50.930;4.336;2022-07-17T10:13:20;0.10;;;0.10;;
15490;SDS011;7847;50.930;4.336;2022-07-17T10:15:46;0.00;;;0.00;;
15490;SDS011;7847;50.930;4.336;2022-07-17T10:18:13;0.10;;;0.10;;
15490;SDS011;7847;50.930;4.336;2022-07-17T10:20:39;0.00;;;0.00;;
15490;SDS011;7847;50.930;4.336;2022-07-17T10:23:12;0.00;;;0.00;;
15490;SDS011;7847;50.930;4.336;2022-07-17T10:25:38;0.00;;;0.00;;
15490;SDS011;7847;50.930;4.336;2022-07-17T10:28:04;0.00;;;0.00;;
15490;SDS011;7847;50.930;4.336;2022-07-17T10:30:32;0.00;;;0.00;;
15490;SDS011;7847;50.930;4.336;2022-07-17T10:32:59;0.00;;;0.00;;
15490;SDS011;7847;50.930;4.336;2022-07-17T10:35:26;0.00;;;0.00;;
15490;SDS011;7847;50.930;4.336;2022-07-17T10:37:53;0.00;;;0.00;;
15490;SDS011;7847;50.930;4.336;2022-07-17T10:40:23;0.00;;;0.00;;
15490;SDS011;7847;50.930;4.336;2022-07-17T10:45:24;0.00;;;0.00;;
15490;SDS011;7847;50.930;4.336;2022-07-17T10:50:23;0.00;;;0.00;;
15490;SDS011;7847;50.930;4.336;2022-07-17T10:53:10;0.10;;;0.10;;
15490;SDS011;7847;50.930;4.336;2022-07-17T10:55:38;0.00;;;0.00;;
15490;SDS011;7847;50.930;4.336;2022-07-17T10:58:12;0.00;;;0.00;;
15490;SDS011;7847;50.930;4.336;2022-07-17T11:00:39;0.00;;;0.00;;
15490;SDS011;7847;50.930;4.336;2022-07-17T11:03:09;0.00;;;0.00;;
15490;SDS011;7847;50.930;4.336;2022-07-17T11:05:35;0.00;;;0.00;;
15490;SDS011;7847;50.930;4.336;2022-07-17T11:08:01;0.00;;;0.00;;
15490;SDS011;7847;50.930;4.336;2022-07-17T11:10:34;0.00;;;0.00;;
15490;SDS011;7847;50.930;4.336;2022-07-17T11:13:18;0.00;;;0.00;;
15490;SDS011;7847;50.930;4.336;2022-07-17T11:15:47;0.00;;;0.00;;
15490;SDS011;7847;50.930;4.336;2022-07-17T11:18:15;0.00;;;0.00;;
15490;SDS011;7847;50.930;4.336;2022-07-17T11:20:52;0.00;;;0.00;;
15490;SDS011;7847;50.930;4.336;2022-07-17T11:23:19;0.00;;;0.00;;
15490;SDS011;7847;50.930;4.336;2022-07-17T11:25:59;0.00;;;0.00;;
15490;SDS011;7847;50.930;4.336;2022-07-17T11:28:26;0.00;;;0.00;;
15490;SDS011;7847;50.930;4.336;2022-07-17T11:30:52;0.00;;;0.00;;
15490;SDS011;7847;50.930;4.336;2022-07-17T11:33:18;0.00;;;0.00;;
15490;SDS011;7847;50.930;4.336;2022-07-17T11:35:48;0.00;;;0.00;;
15490;SDS011;7847;50.930;4.336;2022-07-17T11:38:14;0.00;;;0.00;;
15490;SDS011;7847;50.930;4.336;2022-07-17T11:40:46;0.00;;;0.00;;
15490;SDS011;7847;50.930;4.336;2022-07-17T11:43:13;0.00;;;0.00;;
15490;SDS011;7847;50.930;4.336;2022-07-17T11:45:39;0.00;;;0.00;;
15490;SDS011;7847;50.930;4.336;2022-07-17T11:48:06;0.00;;;0.00;;
15490;SDS011;7847;50.930;4.336;2022-07-17T11:50:32;0.00;;;0.00;;
15490;SDS011;7847;50.930;4.336;2022-07-17T11:53:02;0.00;;;0.00;;
15490;SDS011;7847;50.930;4.336;2022-07-17T11:55:38;0.00;;;0.00;;
15490;SDS011;7847;50.930;4.336;2022-07-17T11:58:05;0.00;;;0.00;;
15490;SDS011;7847;50.930;4.336;2022-07-17T12:00:31;0.00;;;0.00;;
15490;SDS011;7847;50.930;4.336;2022-07-17T12:03:05;0.00;;;0.00;;
15490;SDS011;7847;50.930;4.336;2022-07-17T12:05:32;0.00;;;0.00;;
15490;SDS011;7847;50.930;4.336;2022-07-17T12:07:58;0.00;;;0.00;;
15490;SDS011;7847;50.930;4.336;2022-07-17T12:10:26;0.00;;;0.00;;
15490;SDS011;7847;50.930;4.336;2022-07-17T12:15:19;0.00;;;0.00;;
15490;SDS011;7847;50.930;4.336;2022-07-17T12:17:45;0.00;;;0.00;;
15490;SDS011;7847;50.930;4.336;2022-07-17T12:20:12;0.00;;;0.00;;
15490;SDS011;7847;50.930;4.336;2022-07-17T12:22:41;0.00;;;0.00;;
15490;SDS011;7847;50.930;4.336;2022-07-17T12:25:08;0.00;;;0.00;;
15490;SDS011;7847;50.930;4.336;2022-07-17T12:27:34;0.00;;;0.00;;
15490;SDS011;7847;50.930;4.336;2022-07-17T12:30:00;0.00;;;0.00;;
15490;SDS011;7847;50.930;4.336;2022-07-17T12:32:26;0.00;;;0.00;;
15490;SDS011;7847;50.930;4.336;2022-07-17T12:34:53;0.00;;;0.00;;
15490;SDS011;7847;50.930;4.336;2022-07-17T12:37:20;0.00;;;0.00;;
15490;SDS011;7847;50.930;4.336;2022-07-17T12:39:47;0.00;;;0.00;;
15490;SDS011;7847;50.930;4.336;2022-07-17T12:42:14;0.00;;;0.00;;
15490;SDS011;7847;50.930;4.336;2022-07-17T12:44:40;0.00;;;0.00;;
15490;SDS011;7847;50.930;4.336;2022-07-17T12:47:07;0.00;;;0.00;;
15490;SDS011;7847;50.930;4.336;2022-07-17T12:49:33;0.00;;;0.00;;
15490;SDS011;7847;50.930;4.336;2022-07-17T12:51:59;0.00;;;0.00;;
15490;SDS011;7847;50.930;4.336;2022-07-17T12:54:26;0.00;;;0.00;;
15490;SDS011;7847;50.930;4.336;2022-07-17T12:56:52;0.00;;;0.00;;
15490;SDS011;7847;50.930;4.336;2022-07-17T12:59:18;0.00;;;0.00;;
15490;SDS011;7847;50.930;4.336;2022-07-17T13:01:46;0.00;;;0.00;;
15490;SDS011;7847;50.930;4.336;2022-07-17T13:04:12;0.00;;;0.00;;
15490;SDS011;7847;50.930;4.336;2022-07-17T13:06:38;0.00;;;0.00;;
15490;SDS011;7847;50.930;4.336;2022-07-17T13:09:05;0.00;;;0.00;;
15490;SDS011;7847;50.930;4.336;2022-07-17T13:11:31;0.00;;;0.00;;
15490;SDS011;7847;50.930;4.336;2022-07-17T13:13:57;0.00;;;0.00;;
15490;SDS011;7847;50.930;4.336;2022-07-17T13:16:24;0.00;;;0.00;;
15490;SDS011;7847;50.930;4.336;2022-07-17T13:18:50;0.00;;;0.00;;
15490;SDS011;7847;50.930;4.336;2022-07-17T13:21:16;0.00;;;0.00;;
15490;SDS011;7847;50.930;4.336;2022-07-17T13:23:42;0.00;;;0.00;;
15490;SDS011;7847;50.930;4.336;2022-07-17T13:26:08;0.00;;;0.00;;
15490;SDS011;7847;50.930;4.336;2022-07-17T13:28:34;0.00;;;0.00;;
15490;SDS011;7847;50.930;4.336;2022-07-17T13:31:00;0.00;;;0.00;;
15490;SDS011;7847;50.930;4.336;2022-07-17T13:33:26;0.00;;;0.00;;
15490;SDS011;7847;50.930;4.336;2022-07-17T13:35:53;0.00;;;0.00;;
15490;SDS011;7847;50.930;4.336;2022-07-17T13:38:20;0.00;;;0.00;;
15490;SDS011;7847;50.930;4.336;2022-07-17T13:40:46;0.00;;;0.00;;
15490;SDS011;7847;50.930;4.336;2022-07-17T13:43:12;0.00;;;0.00;;
15490;SDS011;7847;50.930;4.336;2022-07-17T13:45:38;0.00;;;0.00;;
15490;SDS011;7847;50.930;4.336;2022-07-17T13:48:04;0.00;;;0.00;;
15490;SDS011;7847;50.930;4.336;2022-07-17T13:50:31;0.00;;;0.00;;
15490;SDS011;7847;50.930;4.336;2022-07-17T13:52:57;0.00;;;0.00;;
15490;SDS011;7847;50.930;4.336;2022-07-17T13:55:23;0.00;;;0.00;;
15490;SDS011;7847;50.930;4.336;2022-07-17T13:57:49;0.00;;;0.00;;
15490;SDS011;7847;50.930;4.336;2022-07-17T14:00:15;0.00;;;0.00;;
15490;SDS011;7847;50.930;4.336;2022-07-17T14:02:42;0.00;;;0.00;;
15490;SDS011;7847;50.930;4.336;2022-07-17T14:05:09;0.00;;;0.00;;
15490;SDS011;7847;50.930;4.336;2022-07-17T14:07:35;0.00;;;0.00;;
15490;SDS011;7847;50.930;4.336;2022-07-17T14:10:02;0.00;;;0.00;;
15490;SDS011;7847;50.930;4.336;2022-07-17T14:12:29;0.00;;;0.00;;
15490;SDS011;7847;50.930;4.336;2022-07-17T14:14:55;0.00;;;0.00;;
15490;SDS011;7847;50.930;4.336;2022-07-17T14:17:21;0.00;;;0.00;;
15490;SDS011;7847;50.930;4.336;2022-07-17T14:19:47;0.00;;;0.00;;
15490;SDS011;7847;50.930;4.336;2022-07-17T14:22:13;0.00;;;0.00;;
15490;SDS011;7847;50.930;4.336;2022-07-17T14:24:39;0.00;;;0.00;;
15490;SDS011;7847;50.930;4.336;2022-07-17T14:27:05;0.00;;;0.00;;
15490;SDS011;7847;50.930;4.336;2022-07-17T14:29:31;0.00;;;0.00;;
15490;SDS011;7847;50.930;4.336;2022-07-17T14:31:57;0.00;;;0.00;;
15490;SDS011;7847;50.930;4.336;2022-07-17T14:34:24;0.00;;;0.00;;
15490;SDS011;7847;50.930;4.336;2022-07-17T14:36:50;0.00;;;0.00;;
15490;SDS011;7847;50.930;4.336;2022-07-17T14:39:16;0.00;;;0.00;;
15490;SDS011;7847;50.930;4.336;2022-07-17T14:41:42;0.00;;;0.00;;
15490;SDS011;7847;50.930;4.336;2022-07-17T14:44:10;0.00;;;0.00;;
15490;SDS011;7847;50.930;4.336;2022-07-17T14:46:36;0.00;;;0.00;;
15490;SDS011;7847;50.930;4.336;2022-07-17T14:49:02;0.00;;;0.00;;
15490;SDS011;7847;50.930;4.336;2022-07-17T14:51:28;0.00;;;0.00;;
15490;SDS011;7847;50.930;4.336;2022-07-17T14:53:54;0.00;;;0.00;;
15490;SDS011;7847;50.930;4.336;2022-07-17T14:56:20;0.00;;;0.00;;
15490;SDS011;7847;50.930;4.336;2022-07-17T14:58:46;0.00;;;0.00;;
15490;SDS011;7847;50.930;4.336;2022-07-17T15:01:13;0.00;;;0.00;;
15490;SDS011;7847;50.930;4.336;2022-07-17T15:03:39;0.00;;;0.00;;
15490;SDS011;7847;50.930;4.336;2022-07-17T15:06:05;0.00;;;0.00;;
15490;SDS011;7847;50.930;4.336;2022-07-17T15:08:31;0.00;;;0.00;;